Terminal Aerodrome Forecast
Issued by NWS Los Angeles, CA

Home | Current Version | Previous Version | Text Only | Print | Product List | Glossary On
Versions: 1 2 3 4 5 6 7 8 9 10 11 12 13 14 15 16 17 18 19 20 21 22 23
000
FTUS46 KLOX 300800 AAA
TAFSMX
TAF AMD
KSMX 300854Z 3009/3106 VRB03KT 1/4SM FG VV001
     FM301400 VRB03KT 2SM BR OVC002
     FM301500 VRB03KT 3SM BR OVC003
     FM301700 30008KT P6SM SKC
     FM302000 31015G20KT P6SM SKC
     FM310300 31007KT 4SM BR BKN005=

USA.gov is the U.S. government's official web portal to all federal, state and local government web resources and services.